createdAt,value
2023-04-26T00:03:18.992Z,100287.41
2023-04-26T00:08:20.441Z,100291.63
2023-04-26T00:13:22.000Z,100292.72
2023-04-26T00:18:23.700Z,100288.94
2023-04-26T00:23:25.132Z,100290.59
2023-04-26T00:28:26.455Z,100301.72
2023-04-26T00:33:27.798Z,100300.19
2023-04-26T00:38:29.213Z,100307.31
2023-04-26T00:43:30.649Z,100306.31
2023-04-26T00:48:33.107Z,100305.94
2023-04-26T00:53:35.548Z,100310.38
2023-04-26T00:58:37.886Z,100304.94
2023-04-26T01:03:39.362Z,100312.66
2023-04-26T01:08:41.440Z,100311.41
2023-04-26T01:13:43.453Z,100301.56
2023-04-26T01:18:50.479Z,100308.06
2023-04-26T01:23:52.866Z,100297.22
2023-04-26T01:28:54.424Z,100304.56
2023-04-26T01:33:56.428Z,100302.25
2023-04-26T01:38:57.964Z,100290.38
2023-04-26T01:43:59.349Z,100294.94
2023-04-26T01:49:01.206Z,100298.78
2023-04-26T01:54:03.101Z,100298.91
2023-04-26T01:59:04.428Z,100296.69
2023-04-26T02:04:06.312Z,100311.84
2023-04-26T02:09:09.438Z,100302.00
2023-04-26T02:14:10.958Z,100309.84
2023-04-26T02:19:12.581Z,100313.25
2023-04-26T02:24:14.071Z,100316.34
2023-04-26T02:29:15.419Z,100310.22
2023-04-26T02:34:17.671Z,100318.59
2023-04-26T02:39:19.348Z,100313.28
2023-04-26T02:44:20.814Z,100308.66
2023-04-26T02:49:22.203Z,100313.09
2023-04-26T02:54:23.621Z,100310.50
2023-04-26T02:59:25.127Z,100306.28
2023-04-26T03:04:26.470Z,100303.66
2023-04-26T03:09:27.886Z,100303.13
2023-04-26T03:14:29.196Z,100306.28
2023-04-26T03:19:30.610Z,100303.75
2023-04-26T03:24:32.708Z,100295.91
2023-04-26T03:29:34.104Z,100297.72
2023-04-26T03:34:35.706Z,100297.16
2023-04-26T03:39:37.017Z,100301.41
2023-04-26T03:44:38.395Z,100308.19
2023-04-26T03:49:39.723Z,100302.00
2023-04-26T03:54:41.002Z,100306.63
2023-04-26T03:59:42.375Z,100304.50
2023-04-26T04:04:43.951Z,100312.56
2023-04-26T04:09:45.648Z,100305.56
2023-04-26T04:14:47.344Z,100304.06
2023-04-26T04:19:48.770Z,100308.28
2023-04-26T04:24:50.157Z,100308.69
2023-04-26T04:29:51.878Z,100315.22
2023-04-26T04:34:54.270Z,100321.84
2023-04-26T04:39:55.699Z,100327.44
2023-04-26T04:44:57.528Z,100328.00
2023-04-26T04:49:59.056Z,100332.81
2023-04-26T04:55:01.155Z,100343.91
2023-04-26T05:00:07.922Z,100350.22
2023-04-26T05:05:11.071Z,100363.09
2023-04-26T05:10:12.771Z,100367.72
2023-04-26T05:15:14.316Z,100363.75
2023-04-26T05:20:15.834Z,100362.44
2023-04-26T05:25:17.524Z,100370.38
2023-04-26T05:30:19.139Z,100375.66
2023-04-26T05:35:20.520Z,100385.03
2023-04-26T05:40:21.801Z,100379.34
2023-04-26T05:45:23.292Z,100386.78
2023-04-26T05:50:24.873Z,100391.28
2023-04-26T05:55:26.306Z,100390.13
2023-04-26T06:00:27.643Z,100386.09
2023-04-26T06:05:29.311Z,100394.00
2023-04-26T06:10:30.714Z,100403.47
2023-04-26T06:15:32.076Z,100412.78
2023-04-26T06:20:33.562Z,100406.00
2023-04-26T06:25:35.017Z,100404.56
2023-04-26T06:30:36.675Z,100405.22
2023-04-26T06:35:41.508Z,100411.66
2023-04-26T06:40:42.752Z,100418.69
2023-04-26T06:45:44.080Z,100409.84
2023-04-26T06:50:45.462Z,100416.25
2023-04-26T06:55:47.016Z,100410.44
2023-04-26T07:00:48.319Z,100420.56
2023-04-26T07:05:49.665Z,100416.16
2023-04-26T07:10:51.710Z,100431.84
2023-04-26T07:15:53.349Z,100421.84
2023-04-26T07:20:54.706Z,100422.47
2023-04-26T07:25:57.825Z,100428.91
2023-04-26T07:31:01.196Z,100419.19
2023-04-26T07:36:02.892Z,100415.16
2023-04-26T07:41:04.953Z,100409.38
2023-04-26T07:46:06.383Z,100416.38
2023-04-26T07:51:11.988Z,100405.41
2023-04-26T07:56:13.562Z,100405.94
2023-04-26T08:01:16.729Z,100401.28
2023-04-26T08:06:18.408Z,100400.22
2023-04-26T08:11:20.071Z,100402.94
2023-04-26T08:16:21.418Z,100402.31
2023-04-26T08:21:23.119Z,100409.63
2023-04-26T08:26:24.987Z,100399.06
2023-04-26T08:31:28.091Z,100405.50
2023-04-26T08:36:29.519Z,100401.34
2023-04-26T08:41:36.868Z,100404.34
2023-04-26T08:46:57.896Z,100405.06
2023-04-26T08:52:00.553Z,100404.38
2023-04-26T08:57:02.759Z,100400.16
2023-04-26T09:02:09.748Z,100390.31
2023-04-26T09:07:15.852Z,100388.53
2023-04-26T09:12:21.236Z,100375.28
2023-04-26T09:17:26.827Z,100378.91
2023-04-26T09:22:32.487Z,100373.66
2023-04-26T09:27:39.189Z,100369.34
2023-04-26T09:32:48.205Z,100380.69
2023-04-26T09:38:00.179Z,100379.09
2023-04-26T09:43:15.417Z,100378.69
2023-04-26T09:48:23.148Z,100365.31
2023-04-26T09:53:28.156Z,100369.09
2023-04-26T09:58:29.678Z,100366.69
2023-04-26T10:03:33.936Z,100362.97
2023-04-26T10:08:36.757Z,100352.66
2023-04-26T10:13:39.787Z,100361.09
2023-04-26T10:18:41.238Z,100351.81
2023-04-26T10:23:43.512Z,100348.84
2023-04-26T10:28:45.145Z,100352.44
2023-04-26T10:34:19.660Z,100354.53
2023-04-26T10:39:25.170Z,100347.50
2023-04-26T10:44:40.937Z,100340.09
2023-04-26T10:49:48.422Z,100333.63
2023-04-26T10:54:53.434Z,100328.69
2023-04-26T11:00:21.030Z,100313.25
2023-04-26T11:05:54.255Z,100308.56
2023-04-26T11:11:05.068Z,100308.13
2023-04-26T11:16:12.009Z,100298.97
2023-04-26T11:21:17.556Z,100303.16
2023-04-26T11:26:18.976Z,100305.47
2023-04-26T11:31:20.698Z,100297.91
2023-04-26T11:36:22.624Z,100293.66
2023-04-26T11:41:24.627Z,100291.69
2023-04-26T11:46:26.591Z,100283.06
2023-04-26T11:51:30.672Z,100284.72
2023-04-26T11:56:33.245Z,100273.63
2023-04-26T12:01:34.760Z,100275.09
2023-04-26T12:06:44.313Z,100274.53
2023-04-26T12:12:06.369Z,100277.25
2023-04-26T12:17:08.138Z,100275.19
2023-04-26T12:22:09.719Z,100269.19
2023-04-26T12:27:21.819Z,100277.97
2023-04-26T12:32:23.791Z,100258.47
2023-04-26T12:37:25.136Z,100265.59
2023-04-26T12:42:26.682Z,100260.06
2023-04-26T12:47:28.030Z,100259.84
2023-04-26T12:52:30.267Z,100263.19
2023-04-26T12:57:31.609Z,100253.47
2023-04-26T13:02:34.961Z,100255.50
2023-04-26T13:07:39.302Z,100257.19
2023-04-26T13:12:40.977Z,100250.78
2023-04-26T13:17:44.428Z,100239.47
2023-04-26T13:22:46.086Z,100248.69
2023-04-26T13:27:47.526Z,100251.44
2023-04-26T13:32:49.458Z,100257.94
2023-04-26T13:37:51.162Z,100259.84
2023-04-26T13:42:52.551Z,100246.56
2023-04-26T13:47:53.999Z,100253.16
2023-04-26T13:52:55.450Z,100244.22
2023-04-26T13:57:57.337Z,100250.13
2023-04-26T14:02:58.855Z,100240.00
2023-04-26T14:08:01.113Z,100240.16
2023-04-26T14:13:02.842Z,100228.91
2023-04-26T14:18:04.321Z,100237.16
2023-04-26T14:23:05.775Z,100224.72
2023-04-26T14:28:08.728Z,100232.25
2023-04-26T14:33:16.169Z,100231.63
2023-04-26T14:38:18.520Z,100234.28
2023-04-26T14:43:19.925Z,100211.34
2023-04-26T14:48:21.524Z,100213.84
2023-04-26T14:53:22.862Z,100210.94
2023-04-26T14:58:25.213Z,100216.25
2023-04-26T15:03:27.862Z,100200.13
2023-04-26T15:08:29.364Z,100192.06
2023-04-26T15:13:30.702Z,100186.03
2023-04-26T15:18:32.318Z,100193.38
2023-04-26T15:23:36.262Z,100185.81
2023-04-26T15:28:37.671Z,100181.03
2023-04-26T15:33:39.099Z,100186.75
2023-04-26T15:38:44.733Z,100178.50
2023-04-26T15:43:46.055Z,100179.88
2023-04-26T15:48:47.648Z,100180.13
2023-04-26T15:53:51.031Z,100186.41
2023-04-26T15:58:52.506Z,100182.38
2023-04-26T16:03:53.917Z,100181.31
2023-04-26T16:08:55.864Z,100188.75
2023-04-26T16:13:57.233Z,100186.53
2023-04-26T16:18:58.706Z,100194.44
2023-04-26T16:24:00.204Z,100178.81
2023-04-26T16:29:01.758Z,100181.66
2023-04-26T16:34:03.257Z,100181.09
2023-04-26T16:39:04.678Z,100181.25
2023-04-26T16:44:06.148Z,100170.88
2023-04-26T16:49:09.655Z,100172.03
2023-04-26T16:54:11.316Z,100181.81
2023-04-26T16:59:12.716Z,100188.50
2023-04-26T17:04:14.209Z,100191.94
2023-04-26T17:09:15.833Z,100191.97
2023-04-26T17:14:17.249Z,100200.59
2023-04-26T17:19:18.590Z,100200.22
2023-04-26T17:24:20.151Z,100206.41
2023-04-26T17:29:21.457Z,100213.66
2023-04-26T17:34:22.766Z,100216.78
2023-04-26T17:39:24.821Z,100214.28
2023-04-26T17:44:26.205Z,100205.56
2023-04-26T17:49:27.573Z,100215.84
2023-04-26T17:54:29.355Z,100215.56
2023-04-26T17:59:30.643Z,100222.31
2023-04-26T18:04:32.088Z,100226.13
2023-04-26T18:09:33.696Z,100238.06
2023-04-26T18:14:35.114Z,100228.81
2023-04-26T18:19:36.641Z,100233.56
2023-04-26T18:24:38.193Z,100237.53
2023-04-26T18:29:39.852Z,100228.25
2023-04-26T18:34:41.617Z,100223.59
2023-04-26T18:39:42.973Z,100247.19
2023-04-26T18:44:44.417Z,100246.78
2023-04-26T18:49:45.689Z,100253.78
2023-04-26T18:54:47.009Z,100256.56
2023-04-26T18:59:49.400Z,100259.66
2023-04-26T19:04:50.916Z,100265.28
2023-04-26T19:09:54.526Z,100263.00
2023-04-26T19:14:56.711Z,100275.75
2023-04-26T19:19:58.084Z,100273.06
2023-04-26T19:24:59.474Z,100276.13
2023-04-26T19:30:01.338Z,100282.84
2023-04-26T19:35:04.799Z,100284.09
2023-04-26T19:40:07.420Z,100283.78
2023-04-26T19:45:09.256Z,100290.34
2023-04-26T19:50:11.462Z,100282.75
2023-04-26T19:55:13.529Z,100286.38
2023-04-26T20:00:15.907Z,100290.16
2023-04-26T20:05:17.532Z,100292.47
2023-04-26T20:10:20.256Z,100287.41
2023-04-26T20:15:21.767Z,100297.50
2023-04-26T20:20:23.271Z,100298.75
2023-04-26T20:25:25.600Z,100295.34
2023-04-26T20:30:29.611Z,100295.72
2023-04-26T20:35:30.942Z,100304.13
2023-04-26T20:40:32.470Z,100293.28
2023-04-26T20:45:34.113Z,100300.16
2023-04-26T20:50:36.709Z,100290.00
2023-04-26T20:55:38.285Z,100298.00
2023-04-26T21:00:40.312Z,100306.50
2023-04-26T21:05:41.727Z,100314.06
2023-04-26T21:10:43.170Z,100309.75
2023-04-26T21:15:44.563Z,100313.38
2023-04-26T21:20:45.883Z,100324.16
2023-04-26T21:25:48.224Z,100318.75
2023-04-26T21:30:50.349Z,100321.91
2023-04-26T21:35:51.836Z,100308.38
2023-04-26T21:40:53.199Z,100315.28
2023-04-26T21:45:58.486Z,100325.81
2023-04-26T21:51:00.059Z,100325.56
2023-04-26T21:56:01.451Z,100321.47
2023-04-26T22:01:11.313Z,100318.94
2023-04-26T22:06:12.745Z,100322.84
2023-04-26T22:11:14.291Z,100334.31
2023-04-26T22:16:15.651Z,100331.16
2023-04-26T22:21:17.088Z,100331.41
2023-04-26T22:26:18.422Z,100343.41
2023-04-26T22:31:19.866Z,100338.94
2023-04-26T22:36:21.812Z,100340.09
2023-04-26T22:41:23.556Z,100343.50
2023-04-26T22:46:25.123Z,100356.59
2023-04-26T22:51:27.780Z,100356.47
2023-04-26T22:56:29.102Z,100355.38
2023-04-26T23:01:31.204Z,100360.94
2023-04-26T23:06:32.562Z,100362.91
2023-04-26T23:11:34.140Z,100364.22
2023-04-26T23:16:35.797Z,100358.53
2023-04-26T23:21:37.275Z,100363.03
2023-04-26T23:26:38.734Z,100351.16
2023-04-26T23:31:40.158Z,100354.66
2023-04-26T23:36:41.553Z,100348.28
2023-04-26T23:41:42.925Z,100350.94
2023-04-26T23:46:44.283Z,100348.53
2023-04-26T23:51:45.659Z,100359.41
2023-04-26T23:56:47.055Z,100360.25
